createdAt,value
2023-01-30T00:01:17.650Z,2.80
2023-01-30T00:03:45.642Z,2.63
2023-01-30T00:06:13.419Z,3.20
2023-01-30T00:08:41.389Z,2.33
2023-01-30T00:11:11.861Z,2.85
2023-01-30T00:13:40.228Z,3.00
2023-01-30T00:16:09.931Z,2.92
2023-01-30T00:18:38.802Z,2.00
2023-01-30T00:21:09.008Z,3.67
2023-01-30T00:23:37.452Z,3.70
2023-01-30T00:26:06.807Z,3.38
2023-01-30T00:28:34.788Z,3.08
2023-01-30T00:31:02.795Z,3.08
2023-01-30T00:33:30.684Z,3.17
2023-01-30T00:35:58.362Z,2.28
2023-01-30T00:38:26.076Z,2.78
2023-01-30T00:40:54.148Z,3.17
2023-01-30T00:43:41.160Z,3.60
2023-01-30T00:46:42.309Z,4.55
2023-01-30T00:49:10.133Z,3.05
2023-01-30T00:51:37.878Z,2.80
2023-01-30T00:54:05.935Z,3.45
2023-01-30T00:56:33.882Z,3.35
2023-01-30T00:59:01.769Z,4.15
2023-01-30T01:01:29.471Z,2.58
2023-01-30T01:03:57.347Z,3.03
2023-01-30T01:06:25.072Z,2.80
2023-01-30T01:08:52.705Z,3.72
2023-01-30T01:11:26.033Z,2.58
2023-01-30T01:13:57.359Z,2.55
2023-01-30T01:16:25.868Z,2.85
2023-01-30T01:18:54.221Z,2.30
2023-01-30T01:21:23.170Z,2.25
2023-01-30T01:23:52.543Z,3.03
2023-01-30T01:26:20.871Z,2.25
2023-01-30T01:28:49.138Z,2.22
2023-01-30T01:31:17.865Z,2.60
2023-01-30T01:33:45.675Z,2.15
2023-01-30T01:36:20.047Z,2.20
2023-01-30T01:38:57.280Z,2.20
2023-01-30T01:41:25.130Z,2.22
2023-01-30T01:44:08.718Z,2.38
2023-01-30T01:46:38.947Z,2.92
2023-01-30T01:49:18.415Z,2.05
2023-01-30T01:52:13.563Z,2.63
2023-01-30T01:54:50.517Z,1.95
2023-01-30T01:57:25.565Z,2.80
2023-01-30T02:00:11.712Z,3.30
2023-01-30T02:02:46.691Z,2.80
2023-01-30T02:05:17.203Z,3.08
2023-01-30T02:08:01.433Z,2.58
2023-01-30T02:11:05.298Z,2.53
2023-01-30T02:13:33.670Z,3.40
2023-01-30T02:16:02.771Z,2.83
2023-01-30T02:18:33.853Z,2.95
2023-01-30T02:21:39.409Z,1.67
2023-01-30T02:24:48.640Z,1.83
2023-01-30T02:27:48.488Z,2.15
2023-01-30T02:30:51.179Z,2.53
2023-01-30T02:33:41.221Z,1.92
2023-01-30T02:36:28.008Z,1.80
2023-01-30T02:39:14.538Z,1.80
2023-01-30T02:41:45.514Z,2.00
2023-01-30T02:44:40.150Z,1.67
2023-01-30T02:47:17.759Z,1.60
2023-01-30T02:49:50.564Z,1.77
2023-01-30T02:52:19.047Z,2.13
2023-01-30T02:54:46.893Z,1.77
2023-01-30T02:57:23.886Z,1.88
2023-01-30T03:00:01.155Z,2.47
2023-01-30T03:03:10.697Z,2.08
2023-01-30T03:06:07.732Z,2.08
2023-01-30T03:08:54.791Z,1.98
2023-01-30T03:11:27.914Z,2.22
2023-01-30T03:14:06.230Z,2.08
2023-01-30T03:16:39.357Z,1.67
2023-01-30T03:19:12.125Z,2.03
2023-01-30T03:21:44.910Z,2.45
2023-01-30T03:24:13.907Z,2.13
2023-01-30T03:26:48.860Z,1.67
2023-01-30T03:29:16.725Z,1.83
2023-01-30T03:31:45.186Z,2.05
2023-01-30T03:34:13.938Z,1.80
2023-01-30T03:36:42.070Z,2.38
2023-01-30T03:41:38.997Z,2.13
2023-01-30T03:44:06.754Z,1.63
2023-01-30T03:46:34.447Z,1.67
2023-01-30T03:49:02.118Z,2.70
2023-01-30T03:51:29.830Z,1.83
2023-01-30T03:56:25.526Z,1.63
2023-01-30T03:58:54.135Z,2.05
2023-01-30T04:01:30.946Z,1.58
2023-01-30T04:03:58.684Z,1.50
2023-01-30T04:06:27.442Z,2.25
2023-01-30T04:08:55.337Z,1.92
2023-01-30T04:14:10.597Z,2.42
2023-01-30T04:16:49.345Z,1.52
2023-01-30T04:19:52.329Z,1.38
2023-01-30T04:22:19.994Z,2.35
2023-01-30T04:24:48.913Z,2.10
2023-01-30T04:27:16.785Z,1.77
2023-01-30T04:30:03.797Z,2.20
2023-01-30T04:32:32.199Z,1.98
2023-01-30T04:35:00.832Z,1.45
2023-01-30T04:37:28.584Z,1.58
2023-01-30T04:42:27.317Z,2.03
2023-01-30T04:45:15.125Z,1.67
2023-01-30T04:47:43.901Z,2.47
2023-01-30T04:50:12.110Z,1.20
2023-01-30T04:52:41.542Z,1.65
2023-01-30T04:55:09.502Z,2.22
2023-01-30T04:57:37.329Z,1.85
2023-01-30T05:00:06.241Z,1.60
2023-01-30T05:02:36.471Z,1.80
2023-01-30T05:05:04.183Z,2.42
2023-01-30T05:07:31.819Z,2.13
2023-01-30T05:09:59.569Z,2.92
2023-01-30T05:12:27.172Z,2.50
2023-01-30T05:14:54.881Z,2.75
2023-01-30T05:17:23.088Z,1.02
2023-01-30T05:22:18.247Z,2.65
2023-01-30T05:24:45.889Z,1.55
2023-01-30T05:27:13.711Z,1.83
2023-01-30T05:29:41.723Z,1.17
2023-01-30T05:32:16.188Z,1.83
2023-01-30T05:34:44.199Z,1.77
2023-01-30T05:37:12.457Z,1.75
2023-01-30T05:39:40.173Z,2.00
2023-01-30T05:42:08.360Z,2.88
2023-01-30T05:44:35.829Z,2.50
2023-01-30T05:47:03.488Z,2.65
2023-01-30T05:49:31.176Z,2.08
2023-01-30T05:51:58.743Z,2.90
2023-01-30T05:54:26.500Z,2.13
2023-01-30T05:56:54.314Z,3.50
2023-01-30T05:59:22.297Z,1.98
2023-01-30T06:01:49.887Z,2.35
2023-01-30T06:04:17.605Z,2.13
2023-01-30T06:06:45.282Z,3.03
2023-01-30T06:09:12.808Z,1.85
2023-01-30T06:11:40.424Z,1.77
2023-01-30T06:14:08.486Z,3.22
2023-01-30T06:16:35.920Z,3.00
2023-01-30T06:19:03.714Z,2.75
2023-01-30T06:21:31.583Z,2.08
2023-01-30T06:23:59.231Z,1.50
2023-01-30T06:26:26.892Z,1.98
2023-01-30T06:28:54.519Z,2.03
2023-01-30T06:31:22.390Z,2.35
2023-01-30T06:33:50.066Z,2.10
2023-01-30T06:36:17.824Z,3.28
2023-01-30T06:38:45.538Z,3.10
2023-01-30T06:41:13.118Z,2.30
2023-01-30T06:43:42.766Z,3.25
2023-01-30T06:46:10.548Z,1.80
2023-01-30T06:48:38.281Z,2.05
2023-01-30T06:51:06.162Z,2.30
2023-01-30T06:53:33.867Z,2.35
2023-01-30T06:56:02.035Z,2.65
2023-01-30T06:58:29.744Z,1.67
2023-01-30T07:00:57.357Z,2.60
2023-01-30T07:03:25.134Z,2.67
2023-01-30T07:05:52.844Z,2.03
2023-01-30T07:08:22.496Z,2.30
2023-01-30T07:10:51.177Z,1.65
2023-01-30T07:13:18.736Z,2.63
2023-01-30T07:15:46.971Z,2.15
2023-01-30T07:18:14.751Z,1.42
2023-01-30T07:20:46.195Z,1.67
2023-01-30T07:23:13.903Z,2.22
2023-01-30T07:25:41.675Z,1.92
2023-01-30T07:28:09.956Z,2.95
2023-01-30T07:30:38.236Z,2.78
2023-01-30T07:33:07.137Z,2.95
2023-01-30T07:35:37.319Z,2.70
2023-01-30T07:38:05.663Z,1.77
2023-01-30T07:40:33.521Z,2.95
2023-01-30T07:45:39.071Z,2.40
2023-01-30T07:48:08.094Z,3.28
2023-01-30T07:50:35.767Z,2.67
2023-01-30T07:53:08.833Z,2.83
2023-01-30T07:55:37.205Z,3.55
2023-01-30T08:00:32.713Z,3.28
2023-01-30T08:03:00.640Z,3.30
2023-01-30T08:05:28.564Z,2.83
2023-01-30T08:07:57.064Z,1.58
2023-01-30T08:10:25.016Z,2.65
2023-01-30T08:12:52.962Z,2.25
2023-01-30T08:17:57.428Z,1.95
2023-01-30T08:20:27.526Z,2.15
2023-01-30T08:22:56.298Z,2.78
2023-01-30T08:25:24.235Z,1.98
2023-01-30T08:27:52.627Z,2.03
2023-01-30T08:30:21.645Z,2.15
2023-01-30T08:32:49.897Z,2.60
2023-01-30T08:37:45.316Z,2.47
2023-01-30T08:40:13.481Z,2.08
2023-01-30T08:45:11.694Z,1.98
2023-01-30T08:50:07.106Z,2.65
2023-01-30T08:52:34.647Z,2.78
2023-01-30T08:55:02.189Z,2.65
2023-01-30T08:57:29.787Z,1.83
2023-01-30T08:59:57.359Z,1.88
2023-01-30T09:02:25.031Z,1.85
2023-01-30T09:04:52.783Z,2.03
2023-01-30T09:07:20.395Z,2.28
2023-01-30T09:09:48.736Z,3.47
2023-01-30T09:12:16.275Z,1.90
2023-01-30T09:14:43.833Z,3.53
2023-01-30T09:17:11.553Z,2.47
2023-01-30T09:19:39.514Z,2.30
2023-01-30T09:22:10.287Z,2.35
2023-01-30T09:24:37.887Z,2.03
2023-01-30T09:27:05.842Z,2.35
2023-01-30T09:29:33.749Z,1.40
2023-01-30T09:32:01.370Z,2.80
2023-01-30T09:34:29.343Z,1.50
2023-01-30T09:37:01.051Z,1.35
2023-01-30T09:39:30.171Z,2.55
2023-01-30T09:42:22.079Z,2.65
2023-01-30T09:45:15.781Z,3.25
2023-01-30T09:47:57.125Z,2.10
2023-01-30T09:50:53.919Z,2.55
2023-01-30T09:54:01.013Z,2.40
2023-01-30T09:56:29.048Z,2.17
2023-01-30T09:59:01.406Z,2.53
2023-01-30T10:01:34.747Z,1.65
2023-01-30T10:04:14.787Z,1.98
2023-01-30T10:06:58.524Z,2.15
2023-01-30T10:09:59.394Z,2.30
2023-01-30T10:12:48.793Z,2.65
2023-01-30T10:15:44.110Z,2.28
2023-01-30T10:18:31.946Z,2.30
2023-01-30T10:23:57.253Z,1.55
2023-01-30T10:26:29.393Z,3.92
2023-01-30T10:29:08.031Z,2.63
2023-01-30T10:31:50.460Z,2.53
2023-01-30T10:34:28.044Z,1.60
2023-01-30T10:37:31.205Z,2.72
2023-01-30T10:40:30.820Z,2.47
2023-01-30T10:43:21.468Z,1.98
2023-01-30T10:46:01.250Z,3.38
2023-01-30T10:48:45.743Z,1.80
2023-01-30T10:51:32.984Z,2.47
2023-01-30T10:54:21.428Z,2.80
2023-01-30T10:56:57.956Z,1.27
2023-01-30T10:59:43.280Z,3.17
2023-01-30T11:02:16.821Z,3.38
2023-01-30T11:04:52.509Z,4.10
2023-01-30T11:07:20.212Z,2.97
2023-01-30T11:09:49.342Z,3.70
2023-01-30T11:12:16.966Z,3.30
2023-01-30T11:14:56.654Z,3.40
2023-01-30T11:17:39.839Z,4.40
2023-01-30T11:20:20.787Z,2.75
2023-01-30T11:23:09.512Z,3.38
2023-01-30T11:26:05.442Z,1.67
2023-01-30T11:28:41.768Z,3.65
2023-01-30T11:31:41.856Z,3.00
2023-01-30T11:34:17.695Z,3.13
2023-01-30T11:36:48.665Z,3.25
2023-01-30T11:39:17.686Z,2.53
2023-01-30T11:42:10.102Z,2.20
2023-01-30T11:44:41.032Z,3.25
2023-01-30T11:47:16.712Z,2.92
2023-01-30T11:49:53.895Z,2.60
2023-01-30T11:52:35.139Z,2.50
2023-01-30T11:55:11.183Z,2.58
2023-01-30T11:57:45.617Z,4.22
2023-01-30T12:00:23.878Z,2.90
2023-01-30T12:02:54.293Z,2.58
2023-01-30T12:05:24.475Z,3.00
2023-01-30T12:07:52.948Z,2.78
2023-01-30T12:10:31.222Z,2.00
2023-01-30T12:15:35.431Z,2.85
2023-01-30T12:18:23.998Z,2.15
2023-01-30T12:20:57.341Z,2.17
2023-01-30T12:23:39.562Z,2.50
2023-01-30T12:26:30.736Z,2.60
2023-01-30T12:29:37.624Z,1.98
2023-01-30T12:32:18.849Z,2.67
2023-01-30T12:34:48.337Z,3.47
2023-01-30T12:37:18.917Z,2.92
2023-01-30T12:40:08.236Z,1.83
2023-01-30T12:43:00.187Z,2.42
2023-01-30T12:45:31.676Z,2.30
2023-01-30T12:48:44.084Z,1.67
2023-01-30T12:51:40.560Z,2.35
2023-01-30T12:54:32.470Z,2.17
2023-01-30T12:57:34.361Z,2.90
2023-01-30T13:00:17.207Z,2.40
2023-01-30T13:03:03.624Z,2.78
2023-01-30T13:05:56.180Z,2.30
2023-01-30T13:08:55.397Z,2.88
2023-01-30T13:11:49.825Z,2.83
2023-01-30T13:14:34.990Z,3.03
2023-01-30T13:17:15.291Z,2.83
2023-01-30T13:19:51.914Z,4.28
2023-01-30T13:22:46.473Z,4.07
2023-01-30T13:25:38.576Z,2.95
2023-01-30T13:28:20.393Z,2.35
2023-01-30T13:30:51.132Z,2.88
2023-01-30T13:33:30.935Z,2.92
2023-01-30T13:36:15.094Z,2.42
2023-01-30T13:39:05.336Z,2.08
2023-01-30T13:41:41.185Z,1.17
2023-01-30T13:44:24.695Z,2.45
2023-01-30T13:46:55.673Z,2.72
2023-01-30T13:49:35.515Z,1.80
2023-01-30T13:52:18.805Z,1.80
2023-01-30T13:55:06.053Z,2.70
2023-01-30T13:57:43.527Z,2.88
2023-01-30T14:00:17.719Z,2.03
2023-01-30T14:03:04.077Z,3.08
2023-01-30T14:06:01.147Z,3.08
2023-01-30T14:08:47.126Z,2.58
2023-01-30T14:11:36.744Z,2.40
2023-01-30T14:14:21.290Z,2.17
2023-01-30T14:16:55.161Z,2.60
2023-01-30T14:19:35.039Z,2.90
2023-01-30T14:22:32.503Z,1.92
2023-01-30T14:25:22.966Z,2.05
2023-01-30T14:27:55.645Z,1.67
2023-01-30T14:30:48.908Z,2.63
2023-01-30T14:33:19.697Z,2.90
2023-01-30T14:36:02.340Z,1.48
2023-01-30T14:38:37.803Z,1.60
2023-01-30T14:41:05.728Z,1.58
2023-01-30T14:43:42.513Z,1.83
2023-01-30T14:46:19.028Z,1.52
2023-01-30T14:48:53.422Z,2.15
2023-01-30T14:51:40.551Z,2.20
2023-01-30T14:54:14.685Z,1.92
2023-01-30T14:56:54.264Z,2.05
2023-01-30T14:59:27.862Z,2.42
2023-01-30T15:02:07.031Z,2.38
2023-01-30T15:04:46.484Z,2.17
2023-01-30T15:07:32.319Z,2.78
2023-01-30T15:10:12.036Z,2.42
2023-01-30T15:12:53.599Z,1.17
2023-01-30T15:15:24.050Z,2.95
2023-01-30T15:18:11.882Z,1.75
2023-01-30T15:21:08.709Z,2.17
2023-01-30T15:23:57.448Z,1.23
2023-01-30T15:26:49.103Z,1.98
2023-01-30T15:31:33.868Z,2.33
2023-01-30T15:34:01.961Z,3.47
2023-01-30T15:36:35.454Z,2.25
2023-01-30T15:39:19.840Z,2.00
2023-01-30T15:41:47.828Z,2.17
2023-01-30T15:44:49.795Z,1.55
2023-01-30T15:47:36.290Z,2.53
2023-01-30T15:50:07.192Z,1.92
2023-01-30T15:52:45.247Z,2.10
2023-01-30T15:55:36.168Z,2.53
2023-01-30T15:58:09.356Z,1.95
2023-01-30T16:00:44.304Z,1.23
2023-01-30T16:03:17.013Z,2.10
2023-01-30T16:05:49.882Z,2.05
2023-01-30T16:08:24.402Z,1.52
2023-01-30T16:10:52.706Z,1.40
2023-01-30T16:13:22.545Z,1.45
2023-01-30T16:15:54.041Z,2.72
2023-01-30T16:18:21.708Z,3.30
2023-01-30T16:21:01.661Z,2.10
2023-01-30T16:23:35.179Z,1.83
2023-01-30T16:26:04.844Z,1.42
2023-01-30T16:28:33.076Z,1.95
2023-01-30T16:33:36.818Z,2.13
2023-01-30T16:36:24.819Z,2.85
2023-01-30T16:38:56.228Z,1.95
2023-01-30T16:41:34.837Z,2.83
2023-01-30T16:44:27.166Z,3.38
2023-01-30T16:47:28.992Z,2.92
2023-01-30T16:49:57.012Z,2.78
2023-01-30T16:52:37.080Z,2.60
2023-01-30T16:55:08.898Z,3.65
2023-01-30T16:57:43.774Z,2.95
2023-01-30T17:00:41.021Z,1.92
2023-01-30T17:03:22.734Z,2.47
2023-01-30T17:05:50.897Z,3.13
2023-01-30T17:08:30.996Z,3.20
2023-01-30T17:10:59.855Z,2.90
2023-01-30T17:13:38.894Z,2.67
2023-01-30T17:16:35.081Z,2.50
2023-01-30T17:19:03.197Z,2.90
2023-01-30T17:21:53.243Z,2.40
2023-01-30T17:24:23.015Z,2.88
2023-01-30T17:26:53.645Z,2.90
2023-01-30T17:29:41.314Z,2.88
2023-01-30T17:32:15.177Z,3.45
2023-01-30T17:34:42.799Z,3.25
2023-01-30T17:37:21.536Z,2.85
2023-01-30T17:39:49.583Z,2.90
2023-01-30T17:42:22.330Z,2.50
2023-01-30T17:44:50.214Z,3.55
2023-01-30T17:47:18.281Z,3.42
2023-01-30T17:49:45.830Z,2.75
2023-01-30T17:52:14.217Z,3.90
2023-01-30T17:54:41.862Z,3.30
2023-01-30T17:57:15.724Z,4.43
2023-01-30T17:59:43.690Z,4.40
2023-01-30T18:02:11.378Z,4.93
2023-01-30T18:04:42.438Z,6.13
2023-01-30T18:07:14.823Z,5.05
2023-01-30T18:09:43.103Z,5.40
2023-01-30T18:14:38.259Z,4.93
2023-01-30T18:17:05.964Z,5.68
2023-01-30T18:19:33.625Z,6.30
2023-01-30T18:22:01.456Z,7.45
2023-01-30T18:24:29.087Z,6.13
2023-01-30T18:26:56.846Z,6.88
2023-01-30T18:29:24.511Z,5.57
2023-01-30T18:31:52.153Z,5.35
2023-01-30T18:34:20.391Z,4.93
2023-01-30T18:36:48.263Z,4.63
2023-01-30T18:41:43.380Z,5.00
2023-01-30T18:44:11.170Z,3.95
2023-01-30T18:46:39.324Z,4.00
2023-01-30T18:49:08.386Z,3.35
2023-01-30T18:51:36.029Z,3.42
2023-01-30T18:54:03.929Z,7.85
2023-01-30T18:56:33.628Z,6.53
2023-01-30T18:59:05.227Z,5.38
2023-01-30T19:01:37.027Z,3.42
2023-01-30T19:04:07.471Z,3.85
2023-01-30T19:06:37.589Z,4.35
2023-01-30T19:09:06.459Z,3.67
2023-01-30T19:12:03.638Z,3.92
2023-01-30T19:14:31.463Z,5.10
2023-01-30T19:16:59.149Z,4.63
2023-01-30T19:19:27.292Z,4.28
2023-01-30T19:21:55.302Z,4.00
2023-01-30T19:24:23.926Z,4.47
2023-01-30T19:26:51.691Z,4.40
2023-01-30T19:29:19.851Z,3.97
2023-01-30T19:31:47.749Z,4.63
2023-01-30T19:34:16.056Z,5.20
2023-01-30T19:39:11.124Z,4.03
2023-01-30T19:41:38.745Z,4.50
2023-01-30T19:44:08.373Z,4.13
2023-01-30T19:46:36.523Z,5.05
2023-01-30T19:51:34.492Z,4.55
2023-01-30T19:54:07.707Z,4.00
2023-01-30T19:56:36.705Z,4.47
2023-01-30T19:59:05.062Z,3.58
2023-01-30T20:01:36.979Z,3.83
2023-01-30T20:04:05.481Z,4.07
2023-01-30T20:09:04.821Z,3.92
2023-01-30T20:11:37.268Z,3.75
2023-01-30T20:14:07.236Z,3.70
2023-01-30T20:16:35.860Z,3.10
2023-01-30T20:19:14.747Z,3.47
2023-01-30T20:21:43.305Z,3.20
2023-01-30T20:24:13.340Z,2.78
2023-01-30T20:26:41.752Z,3.42
2023-01-30T20:29:10.479Z,2.60
2023-01-30T20:31:39.194Z,2.90
2023-01-30T20:34:11.277Z,2.97
2023-01-30T20:36:38.896Z,2.92
2023-01-30T20:39:07.768Z,3.10
2023-01-30T20:41:37.932Z,2.75
2023-01-30T20:44:07.957Z,2.88
2023-01-30T20:46:41.538Z,2.65
2023-01-30T20:49:17.425Z,2.88
2023-01-30T20:51:45.890Z,2.17
2023-01-30T20:54:15.289Z,2.45
2023-01-30T20:56:49.262Z,2.40
2023-01-30T20:59:24.167Z,2.42
2023-01-30T21:01:53.287Z,2.88
2023-01-30T21:04:24.396Z,2.15
2023-01-30T21:06:52.628Z,2.05
2023-01-30T21:09:23.036Z,3.60
2023-01-30T21:11:53.115Z,2.40
2023-01-30T21:14:21.048Z,2.92
2023-01-30T21:16:49.027Z,2.92
2023-01-30T21:19:17.954Z,2.97
2023-01-30T21:21:53.385Z,3.20
2023-01-30T21:24:27.096Z,2.40
2023-01-30T21:26:55.897Z,2.15
2023-01-30T21:29:26.371Z,2.65
2023-01-30T21:31:55.646Z,2.40
2023-01-30T21:34:24.080Z,2.28
2023-01-30T21:37:11.468Z,2.50
2023-01-30T21:39:58.885Z,2.20
2023-01-30T21:42:45.421Z,2.30
2023-01-30T21:45:12.992Z,2.47
2023-01-30T21:47:41.204Z,1.80
2023-01-30T21:52:36.993Z,1.80
2023-01-30T21:55:04.884Z,1.85
2023-01-30T21:57:32.496Z,1.70
2023-01-30T22:00:00.149Z,1.90
2023-01-30T22:02:27.778Z,2.17
2023-01-30T22:04:55.833Z,1.80
2023-01-30T22:07:23.505Z,1.55
2023-01-30T22:09:51.167Z,1.38
2023-01-30T22:12:18.724Z,1.95
2023-01-30T22:14:46.263Z,1.70
2023-01-30T22:17:13.836Z,1.40
2023-01-30T22:19:41.426Z,1.92
2023-01-30T22:22:09.369Z,1.90
2023-01-30T22:24:37.353Z,1.38
2023-01-30T22:27:05.016Z,1.83
2023-01-30T22:29:32.691Z,1.60
2023-01-30T22:32:00.865Z,1.33
2023-01-30T22:34:29.096Z,1.75
2023-01-30T22:36:57.914Z,2.17
2023-01-30T22:39:25.624Z,1.42
2023-01-30T22:41:53.335Z,1.60
2023-01-30T22:44:21.072Z,1.63
2023-01-30T22:46:51.568Z,1.40
2023-01-30T22:49:19.495Z,1.38
2023-01-30T22:51:47.135Z,1.33
2023-01-30T22:54:16.271Z,1.60
2023-01-30T22:56:46.919Z,1.52
2023-01-30T22:59:14.778Z,1.63
2023-01-30T23:01:48.040Z,1.95
2023-01-30T23:04:22.144Z,0.95
2023-01-30T23:06:51.915Z,1.35
2023-01-30T23:09:22.447Z,1.88
2023-01-30T23:12:11.759Z,2.00
2023-01-30T23:14:40.611Z,1.67
2023-01-30T23:17:27.842Z,1.58
2023-01-30T23:19:55.930Z,1.67
2023-01-30T23:24:51.656Z,1.60
2023-01-30T23:27:20.655Z,1.83
2023-01-30T23:29:48.467Z,2.35
2023-01-30T23:32:19.196Z,1.70
2023-01-30T23:34:47.801Z,1.75
2023-01-30T23:37:16.519Z,1.85
2023-01-30T23:39:44.601Z,1.90
2023-01-30T23:44:40.209Z,1.90
2023-01-30T23:47:07.821Z,1.63
2023-01-30T23:49:35.495Z,1.75
2023-01-30T23:52:03.160Z,2.10
2023-01-30T23:54:31.266Z,1.63
2023-01-30T23:56:59.210Z,1.38
2023-01-30T23:59:26.693Z,2.00
